createdAt,value
2019-03-21T00:02:20.843Z,4.00
2019-03-21T00:07:30.245Z,3.88
2019-03-21T00:10:30.794Z,3.81
2019-03-21T00:13:00.847Z,3.78
2019-03-21T00:18:15.690Z,3.72
2019-03-21T00:20:46.017Z,3.70
2019-03-21T00:23:16.337Z,3.60
2019-03-21T00:25:46.651Z,3.60
2019-03-21T00:28:16.694Z,3.60
2019-03-21T00:30:46.757Z,3.54
2019-03-21T00:33:17.119Z,3.52
2019-03-21T00:35:47.224Z,3.52
2019-03-21T00:38:17.211Z,3.58
2019-03-21T00:40:47.564Z,3.53
2019-03-21T00:43:17.619Z,3.59
2019-03-21T00:45:47.657Z,3.45
2019-03-21T00:48:17.698Z,3.45
2019-03-21T00:50:47.733Z,3.43
2019-03-21T00:53:18.057Z,3.51
2019-03-21T00:55:50.778Z,3.48
2019-03-21T00:58:20.817Z,3.30
2019-03-21T01:00:53.888Z,3.30
2019-03-21T01:03:23.920Z,3.25
2019-03-21T01:05:54.277Z,3.22
2019-03-21T01:08:24.332Z,3.30
2019-03-21T01:10:54.708Z,3.30
2019-03-21T01:13:24.755Z,3.39
2019-03-21T01:15:54.806Z,3.25
2019-03-21T01:18:24.839Z,3.25
2019-03-21T01:20:54.870Z,3.23
2019-03-21T01:23:24.927Z,3.15
2019-03-21T01:25:57.711Z,3.10
2019-03-21T01:28:27.747Z,3.14
2019-03-21T01:30:58.118Z,3.16
2019-03-21T01:33:28.439Z,3.06
2019-03-21T01:35:58.492Z,2.99
2019-03-21T01:38:28.932Z,2.88
2019-03-21T01:41:01.871Z,2.80
2019-03-21T01:43:31.925Z,2.92
2019-03-21T01:46:01.960Z,3.02
2019-03-21T01:48:32.025Z,3.02
2019-03-21T01:51:02.062Z,2.89
2019-03-21T01:53:32.115Z,2.91
2019-03-21T01:56:02.458Z,2.88
2019-03-21T01:58:32.761Z,2.83
2019-03-21T02:01:02.790Z,2.93
2019-03-21T02:03:32.858Z,2.99
2019-03-21T02:06:02.880Z,2.96
2019-03-21T02:08:32.918Z,2.94
2019-03-21T02:11:03.283Z,2.79
2019-03-21T02:13:33.404Z,2.74
2019-03-21T02:16:03.428Z,2.83
2019-03-21T02:21:12.831Z,2.82
2019-03-21T02:23:43.174Z,2.81
2019-03-21T02:26:13.202Z,2.81
2019-03-21T02:28:43.239Z,2.80
2019-03-21T02:31:13.272Z,2.81
2019-03-21T02:36:22.392Z,2.82
2019-03-21T02:38:52.429Z,2.76
2019-03-21T02:41:25.332Z,2.70
2019-03-21T02:43:52.512Z,2.61
2019-03-21T02:49:01.907Z,2.71
2019-03-21T02:51:31.931Z,2.67
2019-03-21T02:54:02.150Z,2.69
2019-03-21T02:56:32.014Z,2.71
2019-03-21T02:59:02.054Z,2.66
2019-03-21T03:01:32.082Z,2.75
2019-03-21T03:06:41.503Z,2.67
2019-03-21T03:09:11.545Z,2.67
2019-03-21T03:11:41.656Z,2.54
2019-03-21T03:14:11.664Z,2.65
2019-03-21T03:16:41.689Z,2.63
2019-03-21T03:19:12.077Z,2.65
2019-03-21T03:21:42.124Z,2.61
2019-03-21T03:24:12.183Z,2.63
2019-03-21T03:26:42.200Z,2.57
2019-03-21T03:29:12.235Z,2.43
2019-03-21T03:31:42.271Z,2.37
2019-03-21T03:34:12.314Z,2.40
2019-03-21T03:36:42.351Z,2.33
2019-03-21T03:39:12.393Z,2.34
2019-03-21T03:44:21.795Z,2.42
2019-03-21T03:46:51.819Z,2.39
2019-03-21T03:49:21.854Z,2.42
2019-03-21T03:51:51.879Z,2.45
2019-03-21T03:57:01.570Z,2.34
2019-03-21T03:59:31.612Z,2.26
2019-03-21T04:02:01.626Z,2.16
2019-03-21T04:07:11.015Z,2.25
2019-03-21T04:09:41.357Z,2.29
2019-03-21T04:12:11.690Z,2.18
2019-03-21T04:14:41.729Z,2.21
2019-03-21T04:17:11.761Z,2.17
2019-03-21T04:19:41.803Z,2.13
2019-03-21T04:22:11.828Z,2.12
2019-03-21T04:27:21.225Z,2.10
2019-03-21T04:29:51.287Z,2.06
2019-03-21T04:32:21.303Z,1.99
2019-03-21T04:34:51.346Z,2.13
2019-03-21T04:37:21.383Z,1.87
2019-03-21T04:39:51.425Z,1.92
2019-03-21T04:42:21.449Z,2.01
2019-03-21T04:44:51.527Z,2.01
2019-03-21T04:47:21.555Z,2.08
2019-03-21T04:49:51.840Z,2.08
2019-03-21T04:52:21.878Z,2.02
2019-03-21T04:54:52.279Z,2.06
2019-03-21T04:57:22.607Z,2.06
2019-03-21T04:59:53.027Z,1.95
2019-03-21T05:02:23.051Z,2.02
2019-03-21T05:04:53.094Z,1.93
2019-03-21T05:07:23.384Z,1.97
2019-03-21T05:09:53.441Z,1.88
2019-03-21T05:12:23.463Z,1.91
2019-03-21T05:14:53.504Z,1.91
2019-03-21T05:17:23.879Z,1.87
2019-03-21T05:19:53.932Z,1.93
2019-03-21T05:22:23.980Z,1.79
2019-03-21T05:24:54.032Z,1.81
2019-03-21T05:27:24.065Z,1.78
2019-03-21T05:29:54.108Z,1.72
2019-03-21T05:35:03.895Z,1.71
2019-03-21T05:37:33.918Z,1.81
2019-03-21T05:40:04.232Z,1.73
2019-03-21T05:42:34.647Z,1.78
2019-03-21T05:47:44.051Z,1.95
2019-03-21T05:52:53.226Z,2.00
2019-03-21T05:55:23.280Z,2.04
2019-03-21T05:57:53.333Z,1.97
2019-03-21T06:00:41.145Z,1.97
2019-03-21T06:03:11.433Z,2.00
2019-03-21T06:05:41.472Z,2.06
2019-03-21T06:08:14.492Z,2.11
2019-03-21T06:10:44.545Z,2.23
2019-03-21T06:13:14.588Z,2.21
2019-03-21T06:18:39.487Z,2.26
2019-03-21T06:23:54.930Z,2.32
2019-03-21T06:26:43.180Z,2.35
2019-03-21T06:29:13.479Z,2.42
2019-03-21T06:31:43.496Z,2.51
2019-03-21T06:34:13.877Z,2.65
2019-03-21T06:36:43.886Z,2.73
2019-03-21T06:39:13.929Z,2.76
2019-03-21T06:41:43.958Z,2.82
2019-03-21T06:44:13.999Z,2.93
2019-03-21T06:46:49.367Z,3.07
2019-03-21T06:49:14.081Z,3.25
2019-03-21T06:51:44.127Z,3.39
2019-03-21T06:54:14.161Z,3.57
2019-03-21T06:56:44.194Z,3.67
2019-03-21T07:01:53.600Z,4.16
2019-03-21T07:04:23.953Z,4.25
2019-03-21T07:06:54.328Z,4.41
2019-03-21T07:12:03.739Z,4.69
2019-03-21T07:14:34.089Z,4.82
2019-03-21T07:17:04.125Z,4.96
2019-03-21T07:19:34.174Z,5.14
2019-03-21T07:22:04.207Z,5.34
2019-03-21T07:24:34.241Z,5.47
2019-03-21T07:27:04.271Z,5.62
2019-03-21T07:29:34.313Z,5.73
2019-03-21T07:32:04.343Z,5.84
2019-03-21T07:34:34.379Z,5.90
2019-03-21T07:37:04.413Z,5.90
2019-03-21T07:39:34.456Z,6.07
2019-03-21T07:42:04.764Z,6.40
2019-03-21T07:44:34.796Z,6.40
2019-03-21T07:47:12.848Z,6.51
2019-03-21T07:49:34.898Z,6.79
2019-03-21T07:52:04.937Z,6.79
2019-03-21T07:54:34.971Z,6.98
2019-03-21T07:57:05.012Z,7.23
2019-03-21T07:59:35.034Z,7.52
2019-03-21T08:02:05.409Z,7.62
2019-03-21T08:04:35.482Z,7.69
2019-03-21T08:07:05.510Z,7.81
2019-03-21T08:09:35.595Z,8.05
2019-03-21T08:12:05.613Z,8.36
2019-03-21T08:14:35.626Z,8.70
2019-03-21T08:17:05.751Z,8.86
2019-03-21T08:19:35.724Z,9.01
2019-03-21T08:22:05.759Z,8.92
2019-03-21T08:24:35.798Z,9.21
2019-03-21T08:27:05.832Z,9.37
2019-03-21T08:29:36.189Z,9.47
2019-03-21T08:32:06.512Z,9.53
2019-03-21T08:34:36.824Z,9.62
2019-03-21T08:37:06.884Z,9.71
2019-03-21T08:39:36.920Z,9.83
2019-03-21T08:42:07.398Z,9.93
2019-03-21T08:44:37.623Z,10.07
2019-03-21T08:47:07.930Z,10.24
2019-03-21T08:49:37.990Z,10.29
2019-03-21T08:52:08.043Z,10.39
2019-03-21T08:54:38.091Z,10.55
2019-03-21T08:57:08.220Z,10.58
2019-03-21T08:59:38.198Z,10.66
2019-03-21T09:02:08.535Z,10.69
2019-03-21T09:04:38.568Z,10.72
2019-03-21T09:07:08.619Z,10.79
2019-03-21T09:09:38.651Z,10.88
2019-03-21T09:12:08.687Z,10.99
2019-03-21T09:14:39.010Z,11.08
2019-03-21T09:17:09.366Z,11.09
2019-03-21T09:19:39.399Z,11.16
2019-03-21T09:22:09.452Z,11.12
2019-03-21T09:24:39.486Z,11.22
2019-03-21T09:27:09.534Z,11.28
2019-03-21T09:29:39.841Z,11.35
2019-03-21T09:32:09.903Z,11.38
2019-03-21T09:34:39.944Z,11.57
2019-03-21T09:37:09.967Z,11.64
2019-03-21T09:39:40.012Z,11.65
2019-03-21T09:42:10.066Z,11.61
2019-03-21T09:44:40.429Z,11.75
2019-03-21T09:47:10.497Z,11.81
2019-03-21T09:49:40.877Z,11.91
2019-03-21T09:52:10.919Z,12.03
2019-03-21T09:54:40.953Z,12.08
2019-03-21T09:57:10.994Z,12.09
2019-03-21T09:59:41.023Z,12.06
2019-03-21T10:02:11.364Z,12.15
2019-03-21T10:04:41.399Z,12.26
2019-03-21T10:07:11.449Z,12.17
2019-03-21T10:09:41.484Z,12.37
2019-03-21T10:12:11.532Z,12.35
2019-03-21T10:14:41.570Z,12.43
2019-03-21T10:17:11.617Z,12.33
2019-03-21T10:19:41.655Z,12.37
2019-03-21T10:22:11.696Z,12.54
2019-03-21T10:24:41.723Z,12.57
2019-03-21T10:27:11.768Z,12.63
2019-03-21T10:29:42.171Z,12.78
2019-03-21T10:32:14.508Z,12.85
2019-03-21T10:34:42.269Z,12.87
2019-03-21T10:37:12.301Z,12.77
2019-03-21T10:39:42.349Z,12.94
2019-03-21T10:42:12.754Z,12.94
2019-03-21T10:44:43.080Z,12.98
2019-03-21T10:47:13.135Z,12.93
2019-03-21T10:49:43.515Z,13.00
2019-03-21T10:52:13.928Z,12.94
2019-03-21T10:54:43.961Z,13.12
2019-03-21T10:57:14.007Z,13.25
2019-03-21T10:59:44.041Z,13.07
2019-03-21T11:02:14.078Z,13.15
2019-03-21T11:04:44.399Z,13.24
2019-03-21T11:07:13.915Z,13.49
2019-03-21T11:09:43.948Z,13.71
2019-03-21T11:12:13.991Z,13.31
2019-03-21T11:14:44.364Z,13.40
2019-03-21T11:17:14.706Z,13.44
2019-03-21T11:19:44.771Z,13.57
2019-03-21T11:22:14.794Z,13.69
2019-03-21T11:24:44.850Z,13.68
2019-03-21T11:27:14.947Z,13.52
2019-03-21T11:29:44.933Z,13.32
2019-03-21T11:32:14.959Z,13.38
2019-03-21T11:34:45.000Z,13.39
2019-03-21T11:37:15.027Z,13.68
2019-03-21T11:39:45.437Z,13.74
2019-03-21T11:42:15.481Z,13.90
2019-03-21T11:44:45.583Z,14.01
2019-03-21T11:47:15.622Z,13.99
2019-03-21T11:49:46.015Z,13.88
2019-03-21T11:52:18.470Z,13.81
2019-03-21T11:54:46.364Z,13.54
2019-03-21T11:57:16.392Z,13.71
2019-03-21T11:59:51.440Z,13.88
2019-03-21T12:02:26.787Z,13.91
2019-03-21T12:04:46.515Z,13.90
2019-03-21T12:07:16.588Z,14.03
2019-03-21T12:09:46.609Z,13.79
2019-03-21T12:12:16.644Z,13.65
2019-03-21T12:14:46.994Z,13.85
2019-03-21T12:17:17.306Z,14.04
2019-03-21T12:19:47.630Z,14.04
2019-03-21T12:22:29.163Z,13.97
2019-03-21T12:24:48.000Z,14.03
2019-03-21T12:27:18.394Z,14.04
2019-03-21T12:29:48.453Z,14.07
2019-03-21T12:32:18.504Z,14.05
2019-03-21T12:34:48.858Z,14.11
2019-03-21T12:37:18.910Z,14.14
2019-03-21T12:39:48.941Z,14.50
2019-03-21T12:42:18.992Z,14.40
2019-03-21T12:44:49.601Z,14.49
2019-03-21T12:47:30.565Z,14.49
2019-03-21T12:49:49.142Z,14.62
2019-03-21T12:52:19.484Z,14.65
2019-03-21T12:54:49.543Z,14.53
2019-03-21T12:57:19.915Z,14.67
2019-03-21T12:59:49.960Z,14.79
2019-03-21T13:02:31.839Z,14.53
2019-03-21T13:04:50.044Z,14.37
2019-03-21T13:07:20.815Z,14.53
2019-03-21T13:09:50.498Z,14.39
2019-03-21T13:12:20.539Z,14.28
2019-03-21T13:14:50.834Z,14.03
2019-03-21T13:17:20.897Z,14.05
2019-03-21T13:19:50.950Z,14.26
2019-03-21T13:22:21.288Z,14.16
2019-03-21T13:24:51.611Z,14.54
2019-03-21T13:27:21.667Z,14.65
2019-03-21T13:29:52.060Z,14.56
2019-03-21T13:32:22.104Z,14.52
2019-03-21T13:34:52.153Z,14.22
2019-03-21T13:37:22.203Z,14.12
2019-03-21T13:39:52.236Z,14.32
2019-03-21T13:42:22.553Z,14.43
2019-03-21T13:44:52.589Z,14.43
2019-03-21T13:47:22.902Z,14.37
2019-03-21T13:49:52.923Z,14.60
2019-03-21T13:52:22.986Z,14.44
2019-03-21T13:54:53.340Z,14.51
2019-03-21T13:57:23.392Z,14.61
2019-03-21T13:59:53.709Z,14.63
2019-03-21T14:02:23.754Z,14.43
2019-03-21T14:04:53.785Z,14.29
2019-03-21T14:07:23.850Z,14.51
2019-03-21T14:09:54.158Z,14.55
2019-03-21T14:12:24.202Z,14.52
2019-03-21T14:14:54.250Z,14.25
2019-03-21T14:17:24.284Z,14.22
2019-03-21T14:19:54.314Z,14.35
2019-03-21T14:22:24.361Z,14.35
2019-03-21T14:24:54.389Z,14.24
2019-03-21T14:27:26.005Z,14.32
2019-03-21T14:30:01.153Z,14.41
2019-03-21T14:32:24.796Z,14.53
2019-03-21T14:34:54.824Z,14.40
2019-03-21T14:37:25.135Z,14.61
2019-03-21T14:39:55.455Z,14.62
2019-03-21T14:42:25.559Z,14.66
2019-03-21T14:44:55.809Z,14.72
2019-03-21T14:47:35.812Z,14.77
2019-03-21T14:49:55.890Z,14.53
2019-03-21T14:52:25.949Z,14.37
2019-03-21T14:54:58.732Z,14.09
2019-03-21T14:57:26.315Z,14.27
2019-03-21T14:59:56.349Z,14.64
2019-03-21T15:02:26.395Z,14.64
2019-03-21T15:04:56.444Z,14.43
2019-03-21T15:07:26.753Z,14.49
2019-03-21T15:09:56.784Z,14.48
2019-03-21T15:12:29.657Z,14.60
2019-03-21T15:14:57.541Z,14.51
2019-03-21T15:17:27.581Z,14.39
2019-03-21T15:19:57.969Z,14.16
2019-03-21T15:22:28.008Z,14.04
2019-03-21T15:24:58.042Z,14.07
2019-03-21T15:27:28.097Z,14.26
2019-03-21T15:29:58.474Z,14.15
2019-03-21T15:32:28.463Z,14.30
2019-03-21T15:34:58.514Z,14.46
2019-03-21T15:37:28.537Z,14.41
2019-03-21T15:39:58.586Z,14.38
2019-03-21T15:42:28.618Z,14.31
2019-03-21T15:45:15.724Z,14.44
2019-03-21T15:47:28.945Z,14.38
2019-03-21T15:49:59.007Z,14.47
2019-03-21T15:52:29.019Z,14.27
2019-03-21T15:54:59.082Z,14.22
2019-03-21T15:57:31.808Z,14.47
2019-03-21T15:59:59.435Z,14.33
2019-03-21T16:02:29.759Z,14.04
2019-03-21T16:04:59.805Z,14.11
2019-03-21T16:10:09.537Z,14.13
2019-03-21T16:12:39.573Z,14.11
2019-03-21T16:17:48.996Z,13.87
2019-03-21T16:20:19.077Z,13.94
2019-03-21T16:22:49.107Z,13.88
2019-03-21T16:25:19.149Z,13.88
2019-03-21T16:27:49.205Z,13.96
2019-03-21T16:30:19.602Z,13.78
2019-03-21T16:32:50.025Z,13.60
2019-03-21T16:35:20.448Z,13.51
2019-03-21T16:37:50.494Z,13.46
2019-03-21T16:40:20.532Z,13.56
2019-03-21T16:42:50.908Z,13.47
2019-03-21T16:45:21.406Z,13.31
2019-03-21T16:47:51.007Z,13.38
2019-03-21T16:53:05.564Z,13.28
2019-03-21T16:55:42.550Z,13.19
2019-03-21T16:58:12.746Z,13.21
2019-03-21T17:06:27.469Z,12.92
2019-03-21T17:09:01.077Z,12.79
2019-03-21T17:11:31.401Z,12.65
2019-03-21T17:14:02.003Z,12.59
2019-03-21T17:19:22.241Z,12.26
2019-03-21T17:24:35.167Z,11.94
2019-03-21T17:27:05.689Z,11.82
2019-03-21T17:29:37.548Z,11.57
2019-03-21T17:32:08.239Z,11.29
2019-03-21T17:34:51.714Z,11.10
2019-03-21T17:37:23.490Z,10.95
2019-03-21T17:45:19.567Z,10.36
2019-03-21T17:47:49.861Z,10.32
2019-03-21T17:50:22.828Z,10.25
2019-03-21T17:55:38.958Z,10.12
2019-03-21T17:58:09.208Z,9.96
2019-03-21T18:00:39.504Z,9.77
2019-03-21T18:03:09.768Z,9.69
2019-03-21T18:05:40.373Z,9.66
2019-03-21T18:08:13.997Z,9.67
2019-03-21T18:10:45.843Z,9.63
2019-03-21T18:15:58.318Z,9.52
2019-03-21T18:18:30.494Z,9.48
2019-03-21T18:26:30.699Z,9.32
2019-03-21T18:31:51.210Z,9.09
2019-03-21T18:34:25.584Z,9.03
2019-03-21T18:36:56.367Z,9.05
2019-03-21T18:39:34.169Z,9.02
2019-03-21T18:42:02.332Z,8.90
2019-03-21T18:44:39.005Z,8.92
2019-03-21T18:47:12.554Z,8.88
2019-03-21T18:55:21.823Z,8.67
2019-03-21T18:57:51.110Z,8.58
2019-03-21T19:00:30.928Z,8.54
2019-03-21T19:03:00.729Z,8.55
2019-03-21T19:08:19.435Z,8.43
2019-03-21T19:10:49.980Z,8.41
2019-03-21T19:13:20.255Z,8.41
2019-03-21T19:18:35.342Z,8.37
2019-03-21T19:21:08.637Z,8.33
2019-03-21T19:23:38.758Z,8.27
2019-03-21T19:31:38.707Z,8.17
2019-03-21T19:34:13.732Z,8.16
2019-03-21T19:42:13.391Z,8.04
2019-03-21T19:44:48.942Z,8.05
2019-03-21T19:47:43.166Z,7.95
2019-03-21T19:53:10.026Z,7.98
2019-03-21T19:58:24.194Z,7.85
2019-03-21T20:00:56.776Z,7.88
2019-03-21T20:03:27.970Z,7.88
2019-03-21T20:11:27.902Z,7.79
2019-03-21T20:13:58.533Z,7.61
2019-03-21T20:16:31.430Z,7.61
2019-03-21T20:24:27.691Z,7.54
2019-03-21T20:32:21.846Z,7.52
2019-03-21T20:34:54.427Z,7.63
2019-03-21T20:37:25.694Z,7.54
2019-03-21T20:40:11.173Z,7.48
2019-03-21T20:42:48.294Z,7.36
2019-03-21T20:45:18.632Z,7.28
2019-03-21T20:47:51.090Z,7.28
2019-03-21T20:53:06.158Z,7.20
2019-03-21T20:55:53.254Z,7.12
2019-03-21T20:58:18.260Z,6.99
2019-03-21T21:00:57.136Z,7.00
2019-03-21T21:03:33.788Z,7.11
2019-03-21T21:06:04.838Z,7.01
2019-03-21T21:08:39.533Z,7.01
2019-03-21T21:14:01.590Z,6.96
2019-03-21T21:16:38.633Z,6.97
2019-03-21T21:19:25.791Z,6.78
2019-03-21T21:28:07.562Z,6.77
2019-03-21T21:36:00.363Z,6.67
2019-03-21T21:38:30.534Z,6.64
2019-03-21T21:41:07.617Z,6.53
2019-03-21T21:49:08.821Z,6.50
2019-03-21T21:51:43.573Z,6.52
2019-03-21T21:54:21.258Z,6.58
2019-03-21T21:56:58.351Z,6.46
2019-03-21T22:02:13.759Z,6.33
2019-03-21T22:04:44.882Z,6.23
2019-03-21T22:07:18.640Z,6.18
2019-03-21T22:09:49.059Z,6.16
2019-03-21T22:12:24.602Z,6.24
2019-03-21T22:20:21.382Z,6.14
2019-03-21T22:22:51.480Z,6.17
2019-03-21T22:25:23.697Z,6.08
2019-03-21T22:27:57.071Z,6.12
2019-03-21T22:30:30.153Z,6.18
2019-03-21T22:33:03.958Z,6.15
2019-03-21T22:35:34.209Z,6.07
2019-03-21T22:38:04.402Z,6.02
2019-03-21T22:40:34.906Z,6.00
2019-03-21T22:43:07.725Z,6.18
2019-03-21T22:45:42.785Z,6.08
2019-03-21T22:50:55.817Z,6.05
2019-03-21T22:59:01.173Z,5.84
2019-03-21T23:01:31.594Z,5.84
2019-03-21T23:04:02.965Z,5.92
2019-03-21T23:14:45.710Z,5.78
2019-03-21T23:17:16.367Z,5.82
2019-03-21T23:22:41.232Z,5.55
2019-03-21T23:25:10.478Z,5.60
2019-03-21T23:27:47.278Z,5.54
2019-03-21T23:30:36.348Z,5.53
2019-03-21T23:33:08.156Z,5.48
2019-03-21T23:35:42.876Z,5.45
2019-03-21T23:38:20.172Z,5.43
2019-03-21T23:40:53.130Z,5.39
2019-03-21T23:43:26.455Z,5.37
2019-03-21T23:45:56.684Z,5.49
2019-03-21T23:48:28.443Z,5.54
2019-03-21T23:51:00.224Z,5.57
2019-03-21T23:53:34.089Z,5.52
2019-03-21T23:56:09.209Z,5.49
2019-03-21T23:58:44.782Z,5.43
